sensor_id;sensor_type;location;lat;lon;timestamp;pressure;altitude;pressure_sealevel;temperature;humidity
17383;BME280;8809;51.892;8.384;2022-12-19T00:01:35;101209.16;;;-0.62;100.00
17383;BME280;8809;51.892;8.384;2022-12-19T00:04:05;101203.28;;;-0.61;100.00
17383;BME280;8809;51.892;8.384;2022-12-19T00:06:32;101202.53;;;-0.60;100.00
17383;BME280;8809;51.892;8.384;2022-12-19T00:09:00;101198.44;;;-0.58;100.00
17383;BME280;8809;51.892;8.384;2022-12-19T00:11:28;101193.31;;;-0.58;100.00
17383;BME280;8809;51.892;8.384;2022-12-19T00:13:55;101190.88;;;-0.56;100.00
17383;BME280;8809;51.892;8.384;2022-12-19T00:16:24;101172.19;;;-0.55;100.00
17383;BME280;8809;51.892;8.384;2022-12-19T00:18:52;101176.72;;;-0.53;100.00
17383;BME280;8809;51.892;8.384;2022-12-19T00:21:22;101181.06;;;-0.52;100.00
17383;BME280;8809;51.892;8.384;2022-12-19T00:23:49;101162.38;;;-0.51;100.00
17383;BME280;8809;51.892;8.384;2022-12-19T00:26:19;101167.66;;;-0.49;100.00
17383;BME280;8809;51.892;8.384;2022-12-19T00:28:49;101165.34;;;-0.46;100.00
17383;BME280;8809;51.892;8.384;2022-12-19T00:31:17;101162.03;;;-0.45;100.00
17383;BME280;8809;51.892;8.384;2022-12-19T00:33:44;101160.69;;;-0.42;100.00
17383;BME280;8809;51.892;8.384;2022-12-19T00:36:13;101152.22;;;-0.41;100.00
17383;BME280;8809;51.892;8.384;2022-12-19T00:38:43;101149.03;;;-0.38;100.00
17383;BME280;8809;51.892;8.384;2022-12-19T00:41:13;101149.19;;;-0.37;100.00
17383;BME280;8809;51.892;8.384;2022-12-19T00:43:41;101148.56;;;-0.34;100.00
17383;BME280;8809;51.892;8.384;2022-12-19T00:46:10;101149.63;;;-0.32;100.00
17383;BME280;8809;51.892;8.384;2022-12-19T00:48:38;101136.94;;;-0.30;100.00
17383;BME280;8809;51.892;8.384;2022-12-19T00:51:07;101135.41;;;-0.28;100.00
17383;BME280;8809;51.892;8.384;2022-12-19T00:53:35;101134.78;;;-0.26;100.00
17383;BME280;8809;51.892;8.384;2022-12-19T00:56:03;101135.84;;;-0.24;100.00
17383;BME280;8809;51.892;8.384;2022-12-19T00:58:31;101131.00;;;-0.21;100.00
17383;BME280;8809;51.892;8.384;2022-12-19T01:01:04;101121.00;;;-0.18;100.00
17383;BME280;8809;51.892;8.384;2022-12-19T01:03:31;101117.69;;;-0.17;100.00
17383;BME280;8809;51.892;8.384;2022-12-19T01:05:58;101118.88;;;-0.13;100.00
17383;BME280;8809;51.892;8.384;2022-12-19T01:08:25;101108.03;;;-0.11;100.00
17383;BME280;8809;51.892;8.384;2022-12-19T01:10:52;101104.06;;;-0.07;100.00
17383;BME280;8809;51.892;8.384;2022-12-19T01:13:20;101102.53;;;-0.05;100.00
17383;BME280;8809;51.892;8.384;2022-12-19T01:15:46;101106.91;;;-0.04;100.00
17383;BME280;8809;51.892;8.384;2022-12-19T01:18:14;101096.94;;;-0.01;100.00
17383;BME280;8809;51.892;8.384;2022-12-19T01:20:43;101096.28;;;0.02;100.00
17383;BME280;8809;51.892;8.384;2022-12-19T01:23:12;101099.75;;;0.02;100.00
17383;BME280;8809;51.892;8.384;2022-12-19T01:25:40;101098.25;;;0.04;100.00
17383;BME280;8809;51.892;8.384;2022-12-19T01:28:12;101098.53;;;0.07;100.00
17383;BME280;8809;51.892;8.384;2022-12-19T01:30:39;101096.09;;;0.09;100.00
17383;BME280;8809;51.892;8.384;2022-12-19T01:33:07;101091.88;;;0.09;100.00
17383;BME280;8809;51.892;8.384;2022-12-19T01:35:38;101097.25;;;0.12;100.00
17383;BME280;8809;51.892;8.384;2022-12-19T01:38:05;101076.75;;;0.12;100.00
17383;BME280;8809;51.892;8.384;2022-12-19T01:40:33;101076.25;;;0.16;100.00
17383;BME280;8809;51.892;8.384;2022-12-19T01:43:01;101083.19;;;0.17;100.00
17383;BME280;8809;51.892;8.384;2022-12-19T01:45:30;101086.91;;;0.21;100.00
17383;BME280;8809;51.892;8.384;2022-12-19T01:48:03;101075.00;;;0.21;100.00
17383;BME280;8809;51.892;8.384;2022-12-19T01:50:36;101075.91;;;0.22;100.00
17383;BME280;8809;51.892;8.384;2022-12-19T01:53:07;101075.13;;;0.23;100.00
17383;BME280;8809;51.892;8.384;2022-12-19T01:55:35;101075.28;;;0.24;100.00
17383;BME280;8809;51.892;8.384;2022-12-19T01:58:03;101062.44;;;0.24;100.00
17383;BME280;8809;51.892;8.384;2022-12-19T02:00:29;101051.44;;;0.25;100.00
17383;BME280;8809;51.892;8.384;2022-12-19T02:02:59;101047.34;;;0.27;100.00
17383;BME280;8809;51.892;8.384;2022-12-19T02:05:30;101050.81;;;0.28;100.00
17383;BME280;8809;51.892;8.384;2022-12-19T02:07:58;101051.19;;;0.32;100.00
17383;BME280;8809;51.892;8.384;2022-12-19T02:10:27;101046.06;;;0.32;100.00
17383;BME280;8809;51.892;8.384;2022-12-19T02:12:54;101045.31;;;0.33;100.00
17383;BME280;8809;51.892;8.384;2022-12-19T02:15:22;101040.31;;;0.35;100.00
17383;BME280;8809;51.892;8.384;2022-12-19T02:17:57;101032.63;;;0.35;100.00
17383;BME280;8809;51.892;8.384;2022-12-19T02:21:03;101024.03;;;0.34;100.00
17383;BME280;8809;51.892;8.384;2022-12-19T02:24:12;101015.56;;;0.35;100.00
17383;BME280;8809;51.892;8.384;2022-12-19T02:30:11;101021.84;;;0.39;100.00
17383;BME280;8809;51.892;8.384;2022-12-19T02:32:47;101022.63;;;0.38;100.00
17383;BME280;8809;51.892;8.384;2022-12-19T02:35:22;101032.38;;;0.42;100.00
17383;BME280;8809;51.892;8.384;2022-12-19T02:37:56;101030.72;;;0.43;100.00
17383;BME280;8809;51.892;8.384;2022-12-19T02:40:32;101029.97;;;0.44;100.00
17383;BME280;8809;51.892;8.384;2022-12-19T02:43:00;101014.56;;;0.44;100.00
17383;BME280;8809;51.892;8.384;2022-12-19T02:45:33;101015.59;;;0.46;100.00
17383;BME280;8809;51.892;8.384;2022-12-19T02:48:04;101007.00;;;0.45;100.00
17383;BME280;8809;51.892;8.384;2022-12-19T02:50:35;101011.22;;;0.45;100.00
17383;BME280;8809;51.892;8.384;2022-12-19T02:53:02;100997.63;;;0.46;100.00
17383;BME280;8809;51.892;8.384;2022-12-19T02:55:35;101002.00;;;0.47;100.00
17383;BME280;8809;51.892;8.384;2022-12-19T02:58:31;101014.94;;;0.48;100.00
17383;BME280;8809;51.892;8.384;2022-12-19T03:01:09;101002.13;;;0.48;100.00
17383;BME280;8809;51.892;8.384;2022-12-19T03:03:46;100999.69;;;0.50;100.00
17383;BME280;8809;51.892;8.384;2022-12-19T03:06:24;100992.88;;;0.50;100.00
17383;BME280;8809;51.892;8.384;2022-12-19T03:08:56;100987.75;;;0.50;100.00
17383;BME280;8809;51.892;8.384;2022-12-19T03:11:26;100983.53;;;0.51;100.00
17383;BME280;8809;51.892;8.384;2022-12-19T03:13:59;100993.03;;;0.52;100.00
17383;BME280;8809;51.892;8.384;2022-12-19T03:16:27;100989.69;;;0.53;100.00
17383;BME280;8809;51.892;8.384;2022-12-19T03:18:55;100979.44;;;0.53;100.00
17383;BME280;8809;51.892;8.384;2022-12-19T03:21:26;100975.06;;;0.52;100.00
17383;BME280;8809;51.892;8.384;2022-12-19T03:23:55;100974.28;;;0.53;100.00
17383;BME280;8809;51.892;8.384;2022-12-19T03:26:26;100963.25;;;0.54;100.00
17383;BME280;8809;51.892;8.384;2022-12-19T03:29:01;100959.94;;;0.55;100.00
17383;BME280;8809;51.892;8.384;2022-12-19T03:31:32;100960.06;;;0.56;100.00
17383;BME280;8809;51.892;8.384;2022-12-19T03:34:05;100958.41;;;0.57;100.00
17383;BME280;8809;51.892;8.384;2022-12-19T03:36:37;100944.66;;;0.56;100.00
17383;BME280;8809;51.892;8.384;2022-12-19T03:39:08;100945.56;;;0.57;100.00
17383;BME280;8809;51.892;8.384;2022-12-19T03:41:36;100929.38;;;0.58;100.00
17383;BME280;8809;51.892;8.384;2022-12-19T03:44:22;100919.09;;;0.58;100.00
17383;BME280;8809;51.892;8.384;2022-12-19T03:46:56;100912.19;;;0.57;100.00
17383;BME280;8809;51.892;8.384;2022-12-19T03:49:27;100910.53;;;0.57;100.00
17383;BME280;8809;51.892;8.384;2022-12-19T03:51:59;100903.72;;;0.58;100.00
17383;BME280;8809;51.892;8.384;2022-12-19T03:54:35;100897.03;;;0.60;100.00
17383;BME280;8809;51.892;8.384;2022-12-19T03:57:06;100890.25;;;0.60;100.00
17383;BME280;8809;51.892;8.384;2022-12-19T03:59:39;100890.25;;;0.60;100.00
17383;BME280;8809;51.892;8.384;2022-12-19T04:02:07;100894.34;;;0.58;100.00
17383;BME280;8809;51.892;8.384;2022-12-19T04:04:39;100891.00;;;0.59;100.00
17383;BME280;8809;51.892;8.384;2022-12-19T04:07:08;100881.50;;;0.58;100.00
17383;BME280;8809;51.892;8.384;2022-12-19T04:09:36;100879.06;;;0.60;100.00
17383;BME280;8809;51.892;8.384;2022-12-19T04:12:07;100886.00;;;0.61;100.00
17383;BME280;8809;51.892;8.384;2022-12-19T04:14:36;100881.63;;;0.60;100.00
17383;BME280;8809;51.892;8.384;2022-12-19T04:17:08;100883.44;;;0.61;100.00
17383;BME280;8809;51.892;8.384;2022-12-19T04:19:43;100879.97;;;0.60;100.00
17383;BME280;8809;51.892;8.384;2022-12-19T04:22:16;100881.78;;;0.61;100.00
17383;BME280;8809;51.892;8.384;2022-12-19T04:24:47;100881.78;;;0.61;100.00
17383;BME280;8809;51.892;8.384;2022-12-19T04:27:16;100870.75;;;0.62;100.00
17383;BME280;8809;51.892;8.384;2022-12-19T04:29:45;100866.50;;;0.63;100.00
17383;BME280;8809;51.892;8.384;2022-12-19T04:32:13;100869.97;;;0.63;100.00
17383;BME280;8809;51.892;8.384;2022-12-19T04:34:41;100863.94;;;0.63;100.00
17383;BME280;8809;51.892;8.384;2022-12-19T04:37:09;100866.66;;;0.64;100.00
17383;BME280;8809;51.892;8.384;2022-12-19T04:39:36;100864.22;;;0.66;100.00
17383;BME280;8809;51.892;8.384;2022-12-19T04:42:03;100874.59;;;0.67;100.00
17383;BME280;8809;51.892;8.384;2022-12-19T04:44:30;100861.75;;;0.67;100.00
17383;BME280;8809;51.892;8.384;2022-12-19T04:46:57;100869.59;;;0.69;100.00
17383;BME280;8809;51.892;8.384;2022-12-19T04:49:23;100879.84;;;0.69;100.00
17383;BME280;8809;51.892;8.384;2022-12-19T04:51:52;100859.19;;;0.67;100.00
17383;BME280;8809;51.892;8.384;2022-12-19T04:54:19;100858.41;;;0.68;100.00
17383;BME280;8809;51.892;8.384;2022-12-19T04:56:46;100854.19;;;0.69;100.00
17383;BME280;8809;51.892;8.384;2022-12-19T04:59:13;100843.91;;;0.69;100.00
17383;BME280;8809;51.892;8.384;2022-12-19T05:01:40;100845.72;;;0.70;100.00
17383;BME280;8809;51.892;8.384;2022-12-19T05:04:07;100830.31;;;0.70;100.00
17383;BME280;8809;51.892;8.384;2022-12-19T05:06:34;100818.50;;;0.72;100.00
17383;BME280;8809;51.892;8.384;2022-12-19T05:09:02;100815.94;;;0.72;100.00
17383;BME280;8809;51.892;8.384;2022-12-19T05:11:29;100820.31;;;0.73;100.00
17383;BME280;8809;51.892;8.384;2022-12-19T05:13:57;100825.69;;;0.76;100.00
17383;BME280;8809;51.892;8.384;2022-12-19T05:16:24;100825.94;;;0.79;100.00
17383;BME280;8809;51.892;8.384;2022-12-19T05:18:52;100818.22;;;0.79;100.00
17383;BME280;8809;51.892;8.384;2022-12-19T05:21:19;100816.56;;;0.80;100.00
17383;BME280;8809;51.892;8.384;2022-12-19T05:23:46;100815.16;;;0.83;100.00
17383;BME280;8809;51.892;8.384;2022-12-19T05:26:16;100804.88;;;0.83;100.00
17383;BME280;8809;51.892;8.384;2022-12-19T05:28:43;100805.03;;;0.85;100.00
17383;BME280;8809;51.892;8.384;2022-12-19T05:31:12;100807.81;;;0.88;100.00
17383;BME280;8809;51.892;8.384;2022-12-19T05:33:45;100814.88;;;0.90;100.00
17383;BME280;8809;51.892;8.384;2022-12-19T05:36:13;100802.19;;;0.92;100.00
17383;BME280;8809;51.892;8.384;2022-12-19T05:38:41;100802.19;;;0.92;100.00
17383;BME280;8809;51.892;8.384;2022-12-19T05:41:09;100798.06;;;0.94;100.00
17383;BME280;8809;51.892;8.384;2022-12-19T05:43:37;100798.19;;;0.95;100.00
17383;BME280;8809;51.892;8.384;2022-12-19T05:46:05;100783.78;;;0.97;100.00
17383;BME280;8809;51.892;8.384;2022-12-19T05:48:33;100784.81;;;0.99;100.00
17383;BME280;8809;51.892;8.384;2022-12-19T05:51:00;100789.19;;;1.00;100.00
17383;BME280;8809;51.892;8.384;2022-12-19T05:53:27;100778.16;;;1.01;100.00
17383;BME280;8809;51.892;8.384;2022-12-19T05:56:02;100778.28;;;1.03;100.00
17383;BME280;8809;51.892;8.384;2022-12-19T05:58:29;100780.22;;;1.05;100.00
17383;BME280;8809;51.892;8.384;2022-12-19T06:01:01;100777.63;;;1.05;100.00
17383;BME280;8809;51.892;8.384;2022-12-19T06:03:28;100785.44;;;1.07;100.00
17383;BME280;8809;51.892;8.384;2022-12-19T06:05:55;100787.38;;;1.09;100.00
17383;BME280;8809;51.892;8.384;2022-12-19T06:08:22;100790.97;;;1.11;100.00
17383;BME280;8809;51.892;8.384;2022-12-19T06:10:49;100785.19;;;1.14;100.00
17383;BME280;8809;51.892;8.384;2022-12-19T06:13:16;100792.00;;;1.14;100.00
17383;BME280;8809;51.892;8.384;2022-12-19T06:15:43;100789.56;;;1.15;100.00
17383;BME280;8809;51.892;8.384;2022-12-19T06:18:11;100788.13;;;1.19;100.00
17383;BME280;8809;51.892;8.384;2022-12-19T06:20:38;100789.16;;;1.21;100.00
17383;BME280;8809;51.892;8.384;2022-12-19T06:23:05;100782.47;;;1.23;100.00
17383;BME280;8809;51.892;8.384;2022-12-19T06:25:33;100774.97;;;1.26;100.00
17383;BME280;8809;51.892;8.384;2022-12-19T06:27:59;100773.44;;;1.28;100.00
17383;BME280;8809;51.892;8.384;2022-12-19T06:30:27;100788.56;;;1.35;100.00
17383;BME280;8809;51.892;8.384;2022-12-19T06:32:54;100787.03;;;1.37;100.00
17383;BME280;8809;51.892;8.384;2022-12-19T06:35:22;100788.97;;;1.39;100.00
17383;BME280;8809;51.892;8.384;2022-12-19T06:37:49;100790.75;;;1.40;100.00
17383;BME280;8809;51.892;8.384;2022-12-19T06:40:16;100787.63;;;1.44;100.00
17383;BME280;8809;51.892;8.384;2022-12-19T06:43:03;100786.88;;;1.45;100.00
17383;BME280;8809;51.892;8.384;2022-12-19T06:45:30;100791.63;;;1.51;100.00
17383;BME280;8809;51.892;8.384;2022-12-19T06:47:56;100796.97;;;1.54;100.00
17383;BME280;8809;51.892;8.384;2022-12-19T06:50:25;100787.72;;;1.56;100.00
17383;BME280;8809;51.892;8.384;2022-12-19T06:52:51;100796.59;;;1.60;100.00
17383;BME280;8809;51.892;8.384;2022-12-19T06:55:18;100793.38;;;1.62;100.00
17383;BME280;8809;51.892;8.384;2022-12-19T06:57:45;100794.63;;;1.67;100.00
17383;BME280;8809;51.892;8.384;2022-12-19T07:00:18;100793.19;;;1.71;100.00
17383;BME280;8809;51.892;8.384;2022-12-19T07:02:48;100785.72;;;1.74;100.00
17383;BME280;8809;51.892;8.384;2022-12-19T07:05:17;100785.97;;;1.77;100.00
17383;BME280;8809;51.892;8.384;2022-12-19T07:07:45;100789.69;;;1.80;100.00
17383;BME280;8809;51.892;8.384;2022-12-19T07:10:12;100788.22;;;1.84;100.00
17383;BME280;8809;51.892;8.384;2022-12-19T07:12:40;100784.22;;;1.88;100.00
17383;BME280;8809;51.892;8.384;2022-12-19T07:15:07;100784.47;;;1.91;100.00
17383;BME280;8809;51.892;8.384;2022-12-19T07:17:37;100790.88;;;1.96;100.00
17383;BME280;8809;51.892;8.384;2022-12-19T07:20:05;100786.09;;;2.00;100.00
17383;BME280;8809;51.892;8.384;2022-12-19T07:22:38;100791.13;;;1.99;100.00
17383;BME280;8809;51.892;8.384;2022-12-19T07:25:08;100787.09;;;2.02;100.00
17383;BME280;8809;51.892;8.384;2022-12-19T07:27:35;100780.19;;;2.01;100.00
17383;BME280;8809;51.892;8.384;2022-12-19T07:30:03;100783.88;;;2.05;100.00
17383;BME280;8809;51.892;8.384;2022-12-19T07:32:31;100786.69;;;2.08;100.00
17383;BME280;8809;51.892;8.384;2022-12-19T07:34:58;100787.84;;;2.11;100.00
17383;BME280;8809;51.892;8.384;2022-12-19T07:37:25;100787.94;;;2.13;100.00
17383;BME280;8809;51.892;8.384;2022-12-19T07:39:52;100791.53;;;2.15;100.00
17383;BME280;8809;51.892;8.384;2022-12-19T07:42:20;100784.69;;;2.15;100.00
17383;BME280;8809;51.892;8.384;2022-12-19T07:44:47;100784.59;;;2.14;100.00
17383;BME280;8809;51.892;8.384;2022-12-19T07:47:13;100790.75;;;2.16;100.00
17383;BME280;8809;51.892;8.384;2022-12-19T07:49:41;100782.91;;;2.14;100.00
17383;BME280;8809;51.892;8.384;2022-12-19T07:52:08;100787.16;;;2.14;100.00
17383;BME280;8809;51.892;8.384;2022-12-19T07:54:34;100792.31;;;2.14;100.00
17383;BME280;8809;51.892;8.384;2022-12-19T07:57:02;100785.34;;;2.13;100.00
17383;BME280;8809;51.892;8.384;2022-12-19T07:59:31;100788.63;;;2.10;100.00
17383;BME280;8809;51.892;8.384;2022-12-19T08:01:58;100788.50;;;2.09;100.00
17383;BME280;8809;51.892;8.384;2022-12-19T08:04:25;100788.25;;;2.06;100.00
17383;BME280;8809;51.892;8.384;2022-12-19T08:06:52;100787.34;;;2.05;100.00
17383;BME280;8809;51.892;8.384;2022-12-19T08:09:18;100782.19;;;2.05;100.00
17383;BME280;8809;51.892;8.384;2022-12-19T08:11:45;100780.41;;;2.04;100.00
17383;BME280;8809;51.892;8.384;2022-12-19T08:14:12;100778.72;;;2.05;100.00
17383;BME280;8809;51.892;8.384;2022-12-19T08:16:42;100784.88;;;2.07;100.00
17383;BME280;8809;51.892;8.384;2022-12-19T08:19:09;100785.78;;;2.07;100.00
17383;BME280;8809;51.892;8.384;2022-12-19T08:21:36;100781.53;;;2.08;100.00
17383;BME280;8809;51.892;8.384;2022-12-19T08:24:03;100784.25;;;2.09;100.00
17383;BME280;8809;51.892;8.384;2022-12-19T08:26:30;100786.13;;;2.12;100.00
17383;BME280;8809;51.892;8.384;2022-12-19T08:28:57;100782.78;;;2.13;100.00
17383;BME280;8809;51.892;8.384;2022-12-19T08:31:26;100787.16;;;2.14;100.00
17383;BME280;8809;51.892;8.384;2022-12-19T08:33:56;100775.31;;;2.16;100.00
17383;BME280;8809;51.892;8.384;2022-12-19T08:36:23;100770.16;;;2.16;100.00
17383;BME280;8809;51.892;8.384;2022-12-19T08:38:51;100773.75;;;2.18;100.00
17383;BME280;8809;51.892;8.384;2022-12-19T08:41:18;100767.06;;;2.20;100.00
17383;BME280;8809;51.892;8.384;2022-12-19T08:43:47;100774.09;;;2.22;100.00
17383;BME280;8809;51.892;8.384;2022-12-19T08:46:15;100765.72;;;2.25;100.00
17383;BME280;8809;51.892;8.384;2022-12-19T08:48:42;100771.31;;;2.31;100.00
17383;BME280;8809;51.892;8.384;2022-12-19T08:51:12;100767.19;;;2.33;100.00
17383;BME280;8809;51.892;8.384;2022-12-19T08:53:41;100772.84;;;2.39;100.00
17383;BME280;8809;51.892;8.384;2022-12-19T08:56:11;100776.41;;;2.41;100.00
17383;BME280;8809;51.892;8.384;2022-12-19T08:58:38;100778.31;;;2.44;100.00
17383;BME280;8809;51.892;8.384;2022-12-19T09:01:06;100776.00;;;2.47;100.00
17383;BME280;8809;51.892;8.384;2022-12-19T09:03:34;100780.69;;;2.52;100.00
17383;BME280;8809;51.892;8.384;2022-12-19T09:06:03;100774.88;;;2.55;100.00
17383;BME280;8809;51.892;8.384;2022-12-19T09:08:33;100776.81;;;2.57;100.00
17383;BME280;8809;51.892;8.384;2022-12-19T09:11:03;100786.53;;;2.61;100.00
17383;BME280;8809;51.892;8.384;2022-12-19T09:13:31;100786.53;;;2.61;100.00
17383;BME280;8809;51.892;8.384;2022-12-19T09:15:59;100781.38;;;2.61;100.00
17383;BME280;8809;51.892;8.384;2022-12-19T09:18:27;100789.34;;;2.65;100.00
17383;BME280;8809;51.892;8.384;2022-12-19T09:20:54;100781.88;;;2.68;100.00
17383;BME280;8809;51.892;8.384;2022-12-19T09:23:22;100772.53;;;2.70;100.00
17383;BME280;8809;51.892;8.384;2022-12-19T09:25:53;100774.59;;;2.74;100.00
17383;BME280;8809;51.892;8.384;2022-12-19T09:28:19;100787.81;;;2.78;100.00
17383;BME280;8809;51.892;8.384;2022-12-19T09:30:53;100777.06;;;2.84;100.00
17383;BME280;8809;51.892;8.384;2022-12-19T09:33:20;100787.69;;;2.88;100.00
17383;BME280;8809;51.892;8.384;2022-12-19T09:35:49;100776.72;;;2.91;100.00
17383;BME280;8809;51.892;8.384;2022-12-19T09:38:16;100770.91;;;2.93;100.00
17383;BME280;8809;51.892;8.384;2022-12-19T09:40:58;100772.84;;;2.96;100.00
17383;BME280;8809;51.892;8.384;2022-12-19T09:43:38;100772.13;;;2.98;100.00
17383;BME280;8809;51.892;8.384;2022-12-19T09:46:15;100768.91;;;3.01;100.00
17383;BME280;8809;51.892;8.384;2022-12-19T09:48:42;100770.81;;;3.04;100.00
17383;BME280;8809;51.892;8.384;2022-12-19T09:51:13;100777.09;;;3.07;100.00
17383;BME280;8809;51.892;8.384;2022-12-19T09:53:56;100778.22;;;3.11;100.00
17383;BME280;8809;51.892;8.384;2022-12-19T09:56:29;100773.28;;;3.14;100.00
17383;BME280;8809;51.892;8.384;2022-12-19T09:59:01;100773.59;;;3.18;100.00
17383;BME280;8809;51.892;8.384;2022-12-19T10:01:34;100768.81;;;3.23;100.00
17383;BME280;8809;51.892;8.384;2022-12-19T10:04:12;100764.88;;;3.28;100.00
17383;BME280;8809;51.892;8.384;2022-12-19T10:06:43;100772.16;;;3.33;100.00
17383;BME280;8809;51.892;8.384;2022-12-19T10:09:11;100763.84;;;3.38;100.00
17383;BME280;8809;51.892;8.384;2022-12-19T10:11:53;100754.78;;;3.43;100.00
17383;BME280;8809;51.892;8.384;2022-12-19T10:14:35;100761.03;;;3.46;100.00
17383;BME280;8809;51.892;8.384;2022-12-19T10:17:14;100758.78;;;3.51;100.00
17383;BME280;8809;51.892;8.384;2022-12-19T10:19:59;100762.59;;;3.56;100.00
17383;BME280;8809;51.892;8.384;2022-12-19T10:22:35;100759.69;;;3.63;100.00
17383;BME280;8809;51.892;8.384;2022-12-19T10:25:25;100759.09;;;3.67;100.00
17383;BME280;8809;51.892;8.384;2022-12-19T10:27:59;100762.91;;;3.72;100.00
17383;BME280;8809;51.892;8.384;2022-12-19T10:30:32;100759.75;;;3.76;100.00
17383;BME280;8809;51.892;8.384;2022-12-19T10:33:13;100755.94;;;3.83;100.00
17383;BME280;8809;51.892;8.384;2022-12-19T10:35:43;100765.00;;;3.89;100.00
17383;BME280;8809;51.892;8.384;2022-12-19T10:38:20;100765.53;;;3.97;100.00
17383;BME280;8809;51.892;8.384;2022-12-19T10:40:53;100770.31;;;4.04;100.00
17383;BME280;8809;51.892;8.384;2022-12-19T10:43:39;100774.34;;;4.12;100.00
17383;BME280;8809;51.892;8.384;2022-12-19T10:46:14;100767.69;;;4.16;100.00
17383;BME280;8809;51.892;8.384;2022-12-19T10:48:41;100762.75;;;4.19;100.00
17383;BME280;8809;51.892;8.384;2022-12-19T10:51:11;100761.19;;;4.21;100.00
17383;BME280;8809;51.892;8.384;2022-12-19T10:53:39;100757.03;;;4.23;100.00
17383;BME280;8809;51.892;8.384;2022-12-19T10:56:12;100758.00;;;4.25;100.00
17383;BME280;8809;51.892;8.384;2022-12-19T10:58:50;100758.91;;;4.25;100.00
17383;BME280;8809;51.892;8.384;2022-12-19T11:01:24;100752.16;;;4.27;100.00
17383;BME280;8809;51.892;8.384;2022-12-19T11:04:08;100751.59;;;4.31;100.00
17383;BME280;8809;51.892;8.384;2022-12-19T11:06:42;100756.38;;;4.38;100.00
17383;BME280;8809;51.892;8.384;2022-12-19T11:09:35;100741.63;;;4.49;100.00
17383;BME280;8809;51.892;8.384;2022-12-19T11:12:10;100741.22;;;4.56;100.00
17383;BME280;8809;51.892;8.384;2022-12-19T11:14:40;100729.72;;;4.64;100.00
17383;BME280;8809;51.892;8.384;2022-12-19T11:17:26;100733.69;;;4.72;100.00
17383;BME280;8809;51.892;8.384;2022-12-19T11:19:55;100739.47;;;4.81;100.00
17383;BME280;8809;51.892;8.384;2022-12-19T11:22:24;100740.91;;;4.90;100.00
17383;BME280;8809;51.892;8.384;2022-12-19T11:24:53;100731.94;;;4.98;100.00
17383;BME280;8809;51.892;8.384;2022-12-19T11:27:35;100733.72;;;5.12;100.00
17383;BME280;8809;51.892;8.384;2022-12-19T11:30:18;100724.88;;;5.21;100.00
17383;BME280;8809;51.892;8.384;2022-12-19T11:32:47;100726.09;;;5.27;100.00
17383;BME280;8809;51.892;8.384;2022-12-19T11:35:18;100727.38;;;5.33;100.00
17383;BME280;8809;51.892;8.384;2022-12-19T11:37:49;100726.56;;;5.34;100.00
17383;BME280;8809;51.892;8.384;2022-12-19T11:40:23;100726.78;;;5.37;100.00
17383;BME280;8809;51.892;8.384;2022-12-19T11:42:58;100726.47;;;5.46;100.00
17383;BME280;8809;51.892;8.384;2022-12-19T11:45:34;100728.75;;;5.54;100.00
17383;BME280;8809;51.892;8.384;2022-12-19T11:48:11;100723.13;;;5.62;100.00
17383;BME280;8809;51.892;8.384;2022-12-19T11:50:48;100721.13;;;5.71;100.00
17383;BME280;8809;51.892;8.384;2022-12-19T11:53:24;100725.88;;;5.78;100.00
17383;BME280;8809;51.892;8.384;2022-12-19T11:55:56;100722.09;;;5.86;100.00
17383;BME280;8809;51.892;8.384;2022-12-19T11:58:26;100727.69;;;5.92;100.00
17383;BME280;8809;51.892;8.384;2022-12-19T12:01:01;100719.38;;;5.97;100.00
17383;BME280;8809;51.892;8.384;2022-12-19T12:03:43;100727.53;;;6.04;100.00
17383;BME280;8809;51.892;8.384;2022-12-19T12:06:15;100721.84;;;6.09;100.00
17383;BME280;8809;51.892;8.384;2022-12-19T12:08:57;100727.31;;;6.14;100.00
17383;BME280;8809;51.892;8.384;2022-12-19T12:11:36;100720.59;;;6.17;100.00
17383;BME280;8809;51.892;8.384;2022-12-19T12:14:13;100715.81;;;6.23;100.00
17383;BME280;8809;51.892;8.384;2022-12-19T12:17:03;100722.25;;;6.30;100.00
17383;BME280;8809;51.892;8.384;2022-12-19T12:19:47;100719.84;;;6.33;100.00
17383;BME280;8809;51.892;8.384;2022-12-19T12:22:30;100722.78;;;6.39;100.00
17383;BME280;8809;51.892;8.384;2022-12-19T12:25:12;100722.88;;;6.41;100.00
17383;BME280;8809;51.892;8.384;2022-12-19T12:27:50;100717.91;;;6.44;100.00
17383;BME280;8809;51.892;8.384;2022-12-19T12:30:22;100726.13;;;6.51;100.00
17383;BME280;8809;51.892;8.384;2022-12-19T12:33:04;100727.38;;;6.58;100.00
17383;BME280;8809;51.892;8.384;2022-12-19T12:35:34;100720.78;;;6.63;100.00
17383;BME280;8809;51.892;8.384;2022-12-19T12:38:14;100727.72;;;6.64;100.00
17383;BME280;8809;51.892;8.384;2022-12-19T12:40:58;100723.06;;;6.73;100.00
17383;BME280;8809;51.892;8.384;2022-12-19T12:43:43;100720.47;;;6.73;100.00
17383;BME280;8809;51.892;8.384;2022-12-19T12:46:14;100721.47;;;6.75;100.00
17383;BME280;8809;51.892;8.384;2022-12-19T12:48:49;100716.19;;;6.74;100.00
17383;BME280;8809;51.892;8.384;2022-12-19T12:51:17;100724.97;;;6.76;100.00
17383;BME280;8809;51.892;8.384;2022-12-19T12:53:46;100722.28;;;6.74;100.00
17383;BME280;8809;51.892;8.384;2022-12-19T12:56:16;100714.59;;;6.76;100.00
17383;BME280;8809;51.892;8.384;2022-12-19T12:59:03;100710.28;;;6.76;100.00
17383;BME280;8809;51.892;8.384;2022-12-19T13:01:35;100725.16;;;6.79;100.00
17383;BME280;8809;51.892;8.384;2022-12-19T13:04:17;100734.81;;;6.81;100.00
17383;BME280;8809;51.892;8.384;2022-12-19T13:09:43;100717.81;;;6.86;100.00
17383;BME280;8809;51.892;8.384;2022-12-19T13:12:19;100710.81;;;6.85;100.00
17383;BME280;8809;51.892;8.384;2022-12-19T13:15:28;100716.91;;;6.86;100.00
17383;BME280;8809;51.892;8.384;2022-12-19T13:18:07;100707.44;;;6.86;100.00
17383;BME280;8809;51.892;8.384;2022-12-19T13:20:42;100700.66;;;6.88;100.00
17383;BME280;8809;51.892;8.384;2022-12-19T13:29:24;100687.59;;;7.01;100.00
17383;BME280;8809;51.892;8.384;2022-12-19T13:32:07;100685.13;;;7.04;100.00
17383;BME280;8809;51.892;8.384;2022-12-19T13:34:35;100679.94;;;7.04;100.00